sensor_id;sensor_type;location;lat;lon;timestamp;temperature;humidity
68098;DHT22;54886;47.036;15.466;2022-10-16T00:01:15;11.69;82.86
68098;DHT22;54886;47.036;15.466;2022-10-16T00:03:42;11.69;82.49
68098;DHT22;54886;47.036;15.466;2022-10-16T00:06:09;11.63;83.21
68098;DHT22;54886;47.036;15.466;2022-10-16T00:08:35;11.63;82.42
68098;DHT22;54886;47.036;15.466;2022-10-16T00:11:06;11.63;82.89
68098;DHT22;54886;47.036;15.466;2022-10-16T00:13:33;11.55;83.52
68098;DHT22;54886;47.036;15.466;2022-10-16T00:16:00;11.58;82.35
68098;DHT22;54886;47.036;15.466;2022-10-16T00:18:26;11.58;83.20
68098;DHT22;54886;47.036;15.466;2022-10-16T00:20:53;11.54;83.93
68098;DHT22;54886;47.036;15.466;2022-10-16T00:23:19;11.57;84.13
68098;DHT22;54886;47.036;15.466;2022-10-16T00:25:45;11.58;83.25
68098;DHT22;54886;47.036;15.466;2022-10-16T00:28:18;11.59;83.66
68098;DHT22;54886;47.036;15.466;2022-10-16T00:30:44;11.59;82.97
68098;DHT22;54886;47.036;15.466;2022-10-16T00:33:09;11.61;83.36
68098;DHT22;54886;47.036;15.466;2022-10-16T00:35:35;11.59;83.88
68098;DHT22;54886;47.036;15.466;2022-10-16T00:38:00;11.61;84.05
68098;DHT22;54886;47.036;15.466;2022-10-16T00:40:25;11.61;84.65
68098;DHT22;54886;47.036;15.466;2022-10-16T00:42:51;11.62;83.68
68098;DHT22;54886;47.036;15.466;2022-10-16T00:45:16;11.61;84.86
68098;DHT22;54886;47.036;15.466;2022-10-16T00:47:43;11.63;83.94
68098;DHT22;54886;47.036;15.466;2022-10-16T00:50:24;11.63;84.10
68098;DHT22;54886;47.036;15.466;2022-10-16T00:52:52;11.62;84.04
68098;DHT22;54886;47.036;15.466;2022-10-16T00:55:18;11.65;84.45
68098;DHT22;54886;47.036;15.466;2022-10-16T00:57:46;11.63;85.68
68098;DHT22;54886;47.036;15.466;2022-10-16T01:00:15;11.63;85.59
68098;DHT22;54886;47.036;15.466;2022-10-16T01:02:41;11.63;86.00
68098;DHT22;54886;47.036;15.466;2022-10-16T01:05:06;11.66;85.00
68098;DHT22;54886;47.036;15.466;2022-10-16T01:13:02;11.63;85.27
68098;DHT22;54886;47.036;15.466;2022-10-16T01:15:37;11.65;83.84
68098;DHT22;54886;47.036;15.466;2022-10-16T01:18:14;11.65;84.04
68098;DHT22;54886;47.036;15.466;2022-10-16T01:20:48;11.63;83.67
68098;DHT22;54886;47.036;15.466;2022-10-16T01:26:10;11.59;84.03
68098;DHT22;54886;47.036;15.466;2022-10-16T01:28:53;11.58;85.30
68098;DHT22;54886;47.036;15.466;2022-10-16T01:31:23;11.58;83.57
68098;DHT22;54886;47.036;15.466;2022-10-16T01:34:17;11.59;83.94
68098;DHT22;54886;47.036;15.466;2022-10-16T01:36:57;11.57;84.05
68098;DHT22;54886;47.036;15.466;2022-10-16T01:39:29;11.55;83.36
68098;DHT22;54886;47.036;15.466;2022-10-16T01:42:07;11.55;83.05
68098;DHT22;54886;47.036;15.466;2022-10-16T01:44:35;11.55;84.26
68098;DHT22;54886;47.036;15.466;2022-10-16T01:47:02;11.54;84.12
68098;DHT22;54886;47.036;15.466;2022-10-16T01:49:32;11.54;84.08
68098;DHT22;54886;47.036;15.466;2022-10-16T01:52:00;11.55;84.53
68098;DHT22;54886;47.036;15.466;2022-10-16T01:54:28;11.52;84.27
68098;DHT22;54886;47.036;15.466;2022-10-16T01:56:57;11.51;84.69
68098;DHT22;54886;47.036;15.466;2022-10-16T01:59:26;11.48;85.15
68098;DHT22;54886;47.036;15.466;2022-10-16T02:01:56;11.48;84.72
68098;DHT22;54886;47.036;15.466;2022-10-16T02:04:28;11.48;85.40
68098;DHT22;54886;47.036;15.466;2022-10-16T02:06:54;11.48;85.07
68098;DHT22;54886;47.036;15.466;2022-10-16T02:09:20;11.48;84.59
68098;DHT22;54886;47.036;15.466;2022-10-16T02:11:46;11.48;84.26
68098;DHT22;54886;47.036;15.466;2022-10-16T02:14:11;11.46;83.79
68098;DHT22;54886;47.036;15.466;2022-10-16T02:16:45;11.49;83.74
68098;DHT22;54886;47.036;15.466;2022-10-16T02:19:15;11.49;85.19
68098;DHT22;54886;47.036;15.466;2022-10-16T02:21:56;11.48;83.77
68098;DHT22;54886;47.036;15.466;2022-10-16T02:24:32;11.46;83.74
68098;DHT22;54886;47.036;15.466;2022-10-16T02:27:15;11.49;83.62
68098;DHT22;54886;47.036;15.466;2022-10-16T02:29:46;11.46;83.29
68098;DHT22;54886;47.036;15.466;2022-10-16T02:32:19;11.48;83.88
68098;DHT22;54886;47.036;15.466;2022-10-16T02:34:48;11.46;83.74
68098;DHT22;54886;47.036;15.466;2022-10-16T02:37:15;11.46;84.14
68098;DHT22;54886;47.036;15.466;2022-10-16T02:39:41;11.45;84.42
68098;DHT22;54886;47.036;15.466;2022-10-16T02:42:14;11.45;84.87
68098;DHT22;54886;47.036;15.466;2022-10-16T02:44:39;11.46;85.72
68098;DHT22;54886;47.036;15.466;2022-10-16T02:47:05;11.41;85.84
68098;DHT22;54886;47.036;15.466;2022-10-16T02:49:31;11.42;85.31
68098;DHT22;54886;47.036;15.466;2022-10-16T02:51:56;11.43;86.12
68098;DHT22;54886;47.036;15.466;2022-10-16T02:54:22;11.39;86.32
68098;DHT22;54886;47.036;15.466;2022-10-16T02:56:47;11.43;84.68
68098;DHT22;54886;47.036;15.466;2022-10-16T02:59:12;11.39;86.95
68098;DHT22;54886;47.036;15.466;2022-10-16T03:01:38;11.38;86.94
68098;DHT22;54886;47.036;15.466;2022-10-16T03:04:03;11.38;85.54
68098;DHT22;54886;47.036;15.466;2022-10-16T03:06:29;11.39;84.99
68098;DHT22;54886;47.036;15.466;2022-10-16T03:08:54;11.42;86.29
68098;DHT22;54886;47.036;15.466;2022-10-16T03:11:19;11.42;86.52
68098;DHT22;54886;47.036;15.466;2022-10-16T03:13:45;11.42;86.73
68098;DHT22;54886;47.036;15.466;2022-10-16T03:16:10;11.41;86.72
68098;DHT22;54886;47.036;15.466;2022-10-16T03:18:35;11.41;87.48
68098;DHT22;54886;47.036;15.466;2022-10-16T03:21:01;11.41;87.36
68098;DHT22;54886;47.036;15.466;2022-10-16T03:23:26;11.42;88.18
68098;DHT22;54886;47.036;15.466;2022-10-16T03:25:52;11.38;88.03
68098;DHT22;54886;47.036;15.466;2022-10-16T03:28:17;11.38;87.61
68098;DHT22;54886;47.036;15.466;2022-10-16T03:30:43;11.36;88.11
68098;DHT22;54886;47.036;15.466;2022-10-16T03:33:09;11.38;88.05
68098;DHT22;54886;47.036;15.466;2022-10-16T03:35:34;11.39;88.15
68098;DHT22;54886;47.036;15.466;2022-10-16T03:37:59;11.38;87.03
68098;DHT22;54886;47.036;15.466;2022-10-16T03:40:25;11.39;86.94
68098;DHT22;54886;47.036;15.466;2022-10-16T03:42:51;11.39;87.56
68098;DHT22;54886;47.036;15.466;2022-10-16T03:45:16;11.39;87.94
68098;DHT22;54886;47.036;15.466;2022-10-16T03:47:42;11.39;88.10
68098;DHT22;54886;47.036;15.466;2022-10-16T03:50:07;11.39;86.84
68098;DHT22;54886;47.036;15.466;2022-10-16T03:52:33;11.35;86.51
68098;DHT22;54886;47.036;15.466;2022-10-16T03:54:59;11.38;86.88
68098;DHT22;54886;47.036;15.466;2022-10-16T03:57:24;11.36;87.17
68098;DHT22;54886;47.036;15.466;2022-10-16T03:59:49;11.35;87.19
68098;DHT22;54886;47.036;15.466;2022-10-16T04:02:15;11.35;85.92
68098;DHT22;54886;47.036;15.466;2022-10-16T04:04:41;11.36;87.51
68098;DHT22;54886;47.036;15.466;2022-10-16T04:07:06;11.36;87.50
68098;DHT22;54886;47.036;15.466;2022-10-16T04:09:32;11.36;87.55
68098;DHT22;54886;47.036;15.466;2022-10-16T04:11:57;11.38;87.83
68098;DHT22;54886;47.036;15.466;2022-10-16T04:14:22;11.35;88.06
68098;DHT22;54886;47.036;15.466;2022-10-16T04:16:48;11.36;88.45
68098;DHT22;54886;47.036;15.466;2022-10-16T04:19:13;11.35;88.50
68098;DHT22;54886;47.036;15.466;2022-10-16T04:21:39;11.32;88.48
68098;DHT22;54886;47.036;15.466;2022-10-16T04:24:04;11.35;88.26
68098;DHT22;54886;47.036;15.466;2022-10-16T04:26:30;11.34;87.96
68098;DHT22;54886;47.036;15.466;2022-10-16T04:28:55;11.34;87.72
68098;DHT22;54886;47.036;15.466;2022-10-16T04:31:21;11.36;87.90
68098;DHT22;54886;47.036;15.466;2022-10-16T04:33:47;11.35;88.19
68098;DHT22;54886;47.036;15.466;2022-10-16T04:36:12;11.32;88.25
68098;DHT22;54886;47.036;15.466;2022-10-16T04:38:38;11.35;87.48
68098;DHT22;54886;47.036;15.466;2022-10-16T04:41:05;11.35;87.45
68098;DHT22;54886;47.036;15.466;2022-10-16T04:43:31;11.32;88.10
68098;DHT22;54886;47.036;15.466;2022-10-16T04:45:56;11.32;88.08
68098;DHT22;54886;47.036;15.466;2022-10-16T04:48:22;11.30;88.27
68098;DHT22;54886;47.036;15.466;2022-10-16T04:50:47;11.32;88.09
68098;DHT22;54886;47.036;15.466;2022-10-16T04:53:13;11.32;87.21
68098;DHT22;54886;47.036;15.466;2022-10-16T04:55:39;11.32;86.84
68098;DHT22;54886;47.036;15.466;2022-10-16T04:58:05;11.34;87.54
68098;DHT22;54886;47.036;15.466;2022-10-16T05:00:31;11.34;87.20
68098;DHT22;54886;47.036;15.466;2022-10-16T05:02:56;11.32;87.89
68098;DHT22;54886;47.036;15.466;2022-10-16T05:05:25;11.30;87.57
68098;DHT22;54886;47.036;15.466;2022-10-16T05:07:51;11.34;87.84
68098;DHT22;54886;47.036;15.466;2022-10-16T05:10:16;11.31;86.41
68098;DHT22;54886;47.036;15.466;2022-10-16T05:12:42;11.32;86.87
68098;DHT22;54886;47.036;15.466;2022-10-16T05:15:08;11.34;87.36
68098;DHT22;54886;47.036;15.466;2022-10-16T05:17:33;11.34;87.57
68098;DHT22;54886;47.036;15.466;2022-10-16T05:19:59;11.31;88.07
68098;DHT22;54886;47.036;15.466;2022-10-16T05:22:24;11.32;88.09
68098;DHT22;54886;47.036;15.466;2022-10-16T05:24:50;11.32;88.45
68098;DHT22;54886;47.036;15.466;2022-10-16T05:27:15;11.32;88.32
68098;DHT22;54886;47.036;15.466;2022-10-16T05:29:45;11.32;88.02
68098;DHT22;54886;47.036;15.466;2022-10-16T05:32:13;11.31;87.95
68098;DHT22;54886;47.036;15.466;2022-10-16T05:34:38;11.31;88.21
68098;DHT22;54886;47.036;15.466;2022-10-16T05:37:03;11.32;87.82
68098;DHT22;54886;47.036;15.466;2022-10-16T05:39:29;11.32;88.13
68098;DHT22;54886;47.036;15.466;2022-10-16T05:41:54;11.35;88.16
68098;DHT22;54886;47.036;15.466;2022-10-16T05:44:19;11.31;88.32
68098;DHT22;54886;47.036;15.466;2022-10-16T05:46:46;11.31;88.55
68098;DHT22;54886;47.036;15.466;2022-10-16T05:49:11;11.30;88.72
68098;DHT22;54886;47.036;15.466;2022-10-16T05:51:37;11.28;88.77
68098;DHT22;54886;47.036;15.466;2022-10-16T05:54:02;11.31;88.71
68098;DHT22;54886;47.036;15.466;2022-10-16T05:56:27;11.32;88.15
68098;DHT22;54886;47.036;15.466;2022-10-16T05:58:53;11.31;88.16
68098;DHT22;54886;47.036;15.466;2022-10-16T06:01:19;11.31;88.70
68098;DHT22;54886;47.036;15.466;2022-10-16T06:03:46;11.32;88.46
68098;DHT22;54886;47.036;15.466;2022-10-16T06:06:14;11.28;88.83
68098;DHT22;54886;47.036;15.466;2022-10-16T06:08:41;11.31;88.91
68098;DHT22;54886;47.036;15.466;2022-10-16T06:11:11;11.28;89.27
68098;DHT22;54886;47.036;15.466;2022-10-16T06:13:37;11.34;88.34
68098;DHT22;54886;47.036;15.466;2022-10-16T06:16:04;11.35;87.33
68098;DHT22;54886;47.036;15.466;2022-10-16T06:18:30;11.36;88.05
68098;DHT22;54886;47.036;15.466;2022-10-16T06:20:56;11.35;87.26
68098;DHT22;54886;47.036;15.466;2022-10-16T06:23:22;11.35;88.15
68098;DHT22;54886;47.036;15.466;2022-10-16T06:25:48;11.34;88.27
68098;DHT22;54886;47.036;15.466;2022-10-16T06:28:14;11.34;87.50
68098;DHT22;54886;47.036;15.466;2022-10-16T06:30:40;11.36;87.54
68098;DHT22;54886;47.036;15.466;2022-10-16T06:33:05;11.36;87.24
68098;DHT22;54886;47.036;15.466;2022-10-16T06:35:30;11.41;87.42
68098;DHT22;54886;47.036;15.466;2022-10-16T06:37:57;11.42;88.16
68098;DHT22;54886;47.036;15.466;2022-10-16T06:40:22;11.41;87.83
68098;DHT22;54886;47.036;15.466;2022-10-16T06:42:48;11.38;87.95
68098;DHT22;54886;47.036;15.466;2022-10-16T06:45:13;11.38;88.40
68098;DHT22;54886;47.036;15.466;2022-10-16T06:47:39;11.39;88.77
68098;DHT22;54886;47.036;15.466;2022-10-16T06:50:05;11.39;88.92
68098;DHT22;54886;47.036;15.466;2022-10-16T06:52:32;11.43;89.18
68098;DHT22;54886;47.036;15.466;2022-10-16T06:54:58;11.46;89.21
68098;DHT22;54886;47.036;15.466;2022-10-16T06:57:23;11.42;89.26
68098;DHT22;54886;47.036;15.466;2022-10-16T06:59:49;11.43;89.17
68098;DHT22;54886;47.036;15.466;2022-10-16T07:02:14;11.43;89.15
68098;DHT22;54886;47.036;15.466;2022-10-16T07:04:40;11.51;88.73
68098;DHT22;54886;47.036;15.466;2022-10-16T07:07:05;11.55;88.18
68098;DHT22;54886;47.036;15.466;2022-10-16T07:09:30;11.61;89.38
68098;DHT22;54886;47.036;15.466;2022-10-16T07:11:56;11.63;89.16
68098;DHT22;54886;47.036;15.466;2022-10-16T07:14:22;11.66;89.17
68098;DHT22;54886;47.036;15.466;2022-10-16T07:16:48;11.68;88.33
68098;DHT22;54886;47.036;15.466;2022-10-16T07:19:14;11.68;88.36
68098;DHT22;54886;47.036;15.466;2022-10-16T07:21:41;11.73;88.13
68098;DHT22;54886;47.036;15.466;2022-10-16T07:24:11;11.72;88.44
68098;DHT22;54886;47.036;15.466;2022-10-16T07:26:38;11.73;88.65
68098;DHT22;54886;47.036;15.466;2022-10-16T07:29:05;11.76;87.26
68098;DHT22;54886;47.036;15.466;2022-10-16T07:31:31;11.82;88.06
68098;DHT22;54886;47.036;15.466;2022-10-16T07:33:58;11.83;89.09
68098;DHT22;54886;47.036;15.466;2022-10-16T07:36:24;11.86;88.89
68098;DHT22;54886;47.036;15.466;2022-10-16T07:38:49;11.86;89.51
68098;DHT22;54886;47.036;15.466;2022-10-16T07:41:17;11.91;88.75
68098;DHT22;54886;47.036;15.466;2022-10-16T07:43:47;11.93;88.47
68098;DHT22;54886;47.036;15.466;2022-10-16T07:46:13;11.96;88.35
68098;DHT22;54886;47.036;15.466;2022-10-16T07:48:38;11.98;88.89
68098;DHT22;54886;47.036;15.466;2022-10-16T07:51:06;12.00;88.62
68098;DHT22;54886;47.036;15.466;2022-10-16T07:53:32;12.04;88.94
68098;DHT22;54886;47.036;15.466;2022-10-16T07:55:59;12.10;88.93
68098;DHT22;54886;47.036;15.466;2022-10-16T07:58:26;12.13;89.69
68098;DHT22;54886;47.036;15.466;2022-10-16T08:00:51;12.18;88.87
68098;DHT22;54886;47.036;15.466;2022-10-16T08:03:17;12.17;89.23
68098;DHT22;54886;47.036;15.466;2022-10-16T08:05:42;12.21;89.07
68098;DHT22;54886;47.036;15.466;2022-10-16T08:08:13;12.28;88.30
68098;DHT22;54886;47.036;15.466;2022-10-16T08:10:39;12.32;88.76
68098;DHT22;54886;47.036;15.466;2022-10-16T08:13:04;12.35;88.15
68098;DHT22;54886;47.036;15.466;2022-10-16T08:15:29;12.37;88.25
68098;DHT22;54886;47.036;15.466;2022-10-16T08:18:00;12.37;88.57
68098;DHT22;54886;47.036;15.466;2022-10-16T08:20:27;12.41;89.10
68098;DHT22;54886;47.036;15.466;2022-10-16T08:22:53;12.46;87.66
68098;DHT22;54886;47.036;15.466;2022-10-16T08:25:20;12.49;87.29
68098;DHT22;54886;47.036;15.466;2022-10-16T08:27:46;12.55;87.61
68098;DHT22;54886;47.036;15.466;2022-10-16T08:30:11;12.59;87.60
68098;DHT22;54886;47.036;15.466;2022-10-16T08:32:37;12.62;88.07
68098;DHT22;54886;47.036;15.466;2022-10-16T08:35:02;12.66;87.94
68098;DHT22;54886;47.036;15.466;2022-10-16T08:37:32;12.69;87.54
68098;DHT22;54886;47.036;15.466;2022-10-16T08:39:57;12.75;88.25
68098;DHT22;54886;47.036;15.466;2022-10-16T08:45:15;12.82;88.37
68098;DHT22;54886;47.036;15.466;2022-10-16T08:50:18;12.90;89.31
68098;DHT22;54886;47.036;15.466;2022-10-16T08:52:46;12.96;88.75
68098;DHT22;54886;47.036;15.466;2022-10-16T08:57:55;13.03;88.43
68098;DHT22;54886;47.036;15.466;2022-10-16T09:00:21;13.04;87.81
68098;DHT22;54886;47.036;15.466;2022-10-16T09:03:03;13.10;88.09
68098;DHT22;54886;47.036;15.466;2022-10-16T09:05:57;13.14;88.85
68098;DHT22;54886;47.036;15.466;2022-10-16T09:14:04;13.28;88.27
68098;DHT22;54886;47.036;15.466;2022-10-16T09:16:39;13.38;89.04
68098;DHT22;54886;47.036;15.466;2022-10-16T09:19:53;13.41;87.81
68098;DHT22;54886;47.036;15.466;2022-10-16T09:22:22;13.45;88.14
68098;DHT22;54886;47.036;15.466;2022-10-16T09:24:50;13.52;88.96
68098;DHT22;54886;47.036;15.466;2022-10-16T09:27:15;13.62;88.95
68098;DHT22;54886;47.036;15.466;2022-10-16T09:29:41;13.62;88.13
68098;DHT22;54886;47.036;15.466;2022-10-16T09:32:17;13.78;88.70
68098;DHT22;54886;47.036;15.466;2022-10-16T09:34:48;13.83;88.33
68098;DHT22;54886;47.036;15.466;2022-10-16T09:37:18;13.90;88.08
68098;DHT22;54886;47.036;15.466;2022-10-16T09:39:52;13.96;87.88
68098;DHT22;54886;47.036;15.466;2022-10-16T09:42:23;14.00;87.75
68098;DHT22;54886;47.036;15.466;2022-10-16T09:44:52;14.12;87.57
68098;DHT22;54886;47.036;15.466;2022-10-16T09:47:21;14.21;87.30
68098;DHT22;54886;47.036;15.466;2022-10-16T09:50:01;14.23;87.18
68098;DHT22;54886;47.036;15.466;2022-10-16T09:52:30;14.32;86.82
68098;DHT22;54886;47.036;15.466;2022-10-16T09:54:58;14.37;86.10
68098;DHT22;54886;47.036;15.466;2022-10-16T09:57:25;14.44;85.69
68098;DHT22;54886;47.036;15.466;2022-10-16T09:59:53;14.48;86.06
68098;DHT22;54886;47.036;15.466;2022-10-16T10:02:29;14.58;86.19
68098;DHT22;54886;47.036;15.466;2022-10-16T10:04:55;14.64;85.37
68098;DHT22;54886;47.036;15.466;2022-10-16T10:07:31;14.67;85.66
68098;DHT22;54886;47.036;15.466;2022-10-16T10:10:02;14.75;84.82
68098;DHT22;54886;47.036;15.466;2022-10-16T10:12:30;14.82;84.87
68098;DHT22;54886;47.036;15.466;2022-10-16T10:15:11;14.86;83.83
68098;DHT22;54886;47.036;15.466;2022-10-16T10:17:48;14.95;84.17
68098;DHT22;54886;47.036;15.466;2022-10-16T10:20:29;14.96;83.89
68098;DHT22;54886;47.036;15.466;2022-10-16T10:22:56;15.03;83.55
68098;DHT22;54886;47.036;15.466;2022-10-16T10:25:53;15.04;83.11
68098;DHT22;54886;47.036;15.466;2022-10-16T10:31:39;15.23;83.12
68098;DHT22;54886;47.036;15.466;2022-10-16T10:35:22;15.26;82.80
68098;DHT22;54886;47.036;15.466;2022-10-16T10:45:47;15.61;81.13
68098;DHT22;54886;47.036;15.466;2022-10-16T11:02:00;15.93;77.73
68098;DHT22;54886;47.036;15.466;2022-10-16T11:07:17;16.14;77.50
68098;DHT22;54886;47.036;15.466;2022-10-16T11:09:47;16.25;78.19
68098;DHT22;54886;47.036;15.466;2022-10-16T11:12:19;16.34;78.30
68098;DHT22;54886;47.036;15.466;2022-10-16T11:17:26;16.40;77.49
68098;DHT22;54886;47.036;15.466;2022-10-16T11:20:18;16.51;77.44
68098;DHT22;54886;47.036;15.466;2022-10-16T11:23:14;16.65;77.52
68098;DHT22;54886;47.036;15.466;2022-10-16T11:25:43;16.73;76.53
68098;DHT22;54886;47.036;15.466;2022-10-16T11:28:15;16.82;76.62
68098;DHT22;54886;47.036;15.466;2022-10-16T11:31:13;16.80;76.35
68098;DHT22;54886;47.036;15.466;2022-10-16T11:33:41;16.93;75.47
68098;DHT22;54886;47.036;15.466;2022-10-16T11:36:42;16.93;75.86
68098;DHT22;54886;47.036;15.466;2022-10-16T11:41:49;17.03;75.52
68098;DHT22;54886;47.036;15.466;2022-10-16T11:49:33;17.14;75.20
68098;DHT22;54886;47.036;15.466;2022-10-16T11:52:16;17.26;74.08
68098;DHT22;54886;47.036;15.466;2022-10-16T11:57:17;17.31;74.23
68098;DHT22;54886;47.036;15.466;2022-10-16T11:59:47;17.38;73.56
68098;DHT22;54886;47.036;15.466;2022-10-16T12:07:35;17.55;72.00
68098;DHT22;54886;47.036;15.466;2022-10-16T12:10:31;17.59;73.18
68098;DHT22;54886;47.036;15.466;2022-10-16T12:12:59;17.61;73.55
68098;DHT22;54886;47.036;15.466;2022-10-16T12:15:29;17.68;73.26
68098;DHT22;54886;47.036;15.466;2022-10-16T12:17:56;17.71;73.66
68098;DHT22;54886;47.036;15.466;2022-10-16T12:20:31;17.76;74.15
68098;DHT22;54886;47.036;15.466;2022-10-16T12:22:58;17.82;74.36
68098;DHT22;54886;47.036;15.466;2022-10-16T12:25:39;17.82;74.05
68098;DHT22;54886;47.036;15.466;2022-10-16T12:30:41;17.92;74.62
68098;DHT22;54886;47.036;15.466;2022-10-16T12:35:47;18.04;74.56
68098;DHT22;54886;47.036;15.466;2022-10-16T12:38:26;18.07;74.39
68098;DHT22;54886;47.036;15.466;2022-10-16T12:41:03;18.04;74.38
68098;DHT22;54886;47.036;15.466;2022-10-16T12:46:22;18.18;73.13
68098;DHT22;54886;47.036;15.466;2022-10-16T12:48:48;18.40;71.77
68098;DHT22;54886;47.036;15.466;2022-10-16T12:54:40;18.37;73.06
68098;DHT22;54886;47.036;15.466;2022-10-16T12:57:16;18.45;72.35
68098;DHT22;54886;47.036;15.466;2022-10-16T13:10:28;18.54;69.80
68098;DHT22;54886;47.036;15.466;2022-10-16T13:16:16;18.57;69.10
68098;DHT22;54886;47.036;15.466;2022-10-16T13:19:44;18.68;69.59
68098;DHT22;54886;47.036;15.466;2022-10-16T13:24:49;18.69;67.92
68098;DHT22;54886;47.036;15.466;2022-10-16T13:27:33;18.75;68.37
68098;DHT22;54886;47.036;15.466;2022-10-16T13:30:15;18.81;67.93
68098;DHT22;54886;47.036;15.466;2022-10-16T13:32:45;18.78;68.23
68098;DHT22;54886;47.036;15.466;2022-10-16T13:35:26;18.73;68.95
68098;DHT22;54886;47.036;15.466;2022-10-16T13:38:11;18.82;68.95
68098;DHT22;54886;47.036;15.466;2022-10-16T13:40:57;18.84;69.69
68098;DHT22;54886;47.036;15.466;2022-10-16T13:43:38;18.76;70.01
68098;DHT22;54886;47.036;15.466;2022-10-16T13:46:21;18.85;69.77
68098;DHT22;54886;47.036;15.466;2022-10-16T13:49:01;18.88;69.46
68098;DHT22;54886;47.036;15.466;2022-10-16T13:51:27;18.89;69.31
68098;DHT22;54886;47.036;15.466;2022-10-16T13:53:55;18.85;69.45
68098;DHT22;54886;47.036;15.466;2022-10-16T13:56:22;18.82;69.87
68098;DHT22;54886;47.036;15.466;2022-10-16T13:59:04;18.86;70.16
68098;DHT22;54886;47.036;15.466;2022-10-16T14:01:39;18.86;69.49
68098;DHT22;54886;47.036;15.466;2022-10-16T14:04:10;18.85;69.42
68098;DHT22;54886;47.036;15.466;2022-10-16T14:06:40;18.86;69.73
68098;DHT22;54886;47.036;15.466;2022-10-16T14:09:11;18.85;69.87
68098;DHT22;54886;47.036;15.466;2022-10-16T14:11:46;18.89;69.54
68098;DHT22;54886;47.036;15.466;2022-10-16T14:14:14;18.92;69.46
68098;DHT22;54886;47.036;15.466;2022-10-16T14:16:42;18.98;69.37
68098;DHT22;54886;47.036;15.466;2022-10-16T14:19:20;18.95;69.11
68098;DHT22;54886;47.036;15.466;2022-10-16T14:21:48;18.92;69.73
68098;DHT22;54886;47.036;15.466;2022-10-16T14:24:30;18.98;69.67
68098;DHT22;54886;47.036;15.466;2022-10-16T14:26:56;18.96;70.18
68098;DHT22;54886;47.036;15.466;2022-10-16T14:29:24;18.93;70.33
68098;DHT22;54886;47.036;15.466;2022-10-16T14:32:00;18.91;70.56
68098;DHT22;54886;47.036;15.466;2022-10-16T14:34:31;18.91;70.32
68098;DHT22;54886;47.036;15.466;2022-10-16T14:37:00;18.91;70.70
68098;DHT22;54886;47.036;15.466;2022-10-16T14:39:27;18.89;70.33
68098;DHT22;54886;47.036;15.466;2022-10-16T14:41:57;18.88;70.31
68098;DHT22;54886;47.036;15.466;2022-10-16T14:44:28;18.92;70.23
68098;DHT22;54886;47.036;15.466;2022-10-16T14:46:54;18.91;70.53
68098;DHT22;54886;47.036;15.466;2022-10-16T14:49:21;18.89;70.08
68098;DHT22;54886;47.036;15.466;2022-10-16T14:51:47;18.92;69.97
68098;DHT22;54886;47.036;15.466;2022-10-16T14:54:15;18.93;69.99
68098;DHT22;54886;47.036;15.466;2022-10-16T14:56:50;18.92;70.41
68098;DHT22;54886;47.036;15.466;2022-10-16T14:59:39;18.86;70.80
68098;DHT22;54886;47.036;15.466;2022-10-16T15:04:53;18.82;70.98
68098;DHT22;54886;47.036;15.466;2022-10-16T15:07:19;18.79;71.12
68098;DHT22;54886;47.036;15.466;2022-10-16T15:09:44;18.75;71.71
68098;DHT22;54886;47.036;15.466;2022-10-16T15:12:10;18.73;71.60
68098;DHT22;54886;47.036;15.466;2022-10-16T15:14:35;18.72;72.03
68098;DHT22;54886;47.036;15.466;2022-10-16T15:17:01;18.71;71.55
68098;DHT22;54886;47.036;15.466;2022-10-16T15:19:27;18.68;72.13
68098;DHT22;54886;47.036;15.466;2022-10-16T15:21:52;18.67;72.52
68098;DHT22;54886;47.036;15.466;2022-10-16T15:24:17;18.62;72.80
68098;DHT22;54886;47.036;15.466;2022-10-16T15:26:43;18.61;72.72
68098;DHT22;54886;47.036;15.466;2022-10-16T15:29:10;18.58;73.05
68098;DHT22;54886;47.036;15.466;2022-10-16T15:31:36;18.55;73.03
68098;DHT22;54886;47.036;15.466;2022-10-16T15:34:02;18.52;72.79
68098;DHT22;54886;47.036;15.466;2022-10-16T15:36:31;18.48;73.02
68098;DHT22;54886;47.036;15.466;2022-10-16T15:38:59;18.47;72.94
68098;DHT22;54886;47.036;15.466;2022-10-16T15:41:25;18.45;73.13
68098;DHT22;54886;47.036;15.466;2022-10-16T15:43:50;18.41;73.07
68098;DHT22;54886;47.036;15.466;2022-10-16T15:46:21;18.40;72.38
68098;DHT22;54886;47.036;15.466;2022-10-16T15:48:48;18.37;72.90
68098;DHT22;54886;47.036;15.466;2022-10-16T15:51:14;18.36;72.86
68098;DHT22;54886;47.036;15.466;2022-10-16T15:53:40;18.36;72.73
68098;DHT22;54886;47.036;15.466;2022-10-16T15:56:07;18.30;73.20
68098;DHT22;54886;47.036;15.466;2022-10-16T15:58:33;18.26;72.86
68098;DHT22;54886;47.036;15.466;2022-10-16T16:00:59;18.21;73.08
68098;DHT22;54886;47.036;15.466;2022-10-16T16:03:26;18.17;73.66
68098;DHT22;54886;47.036;15.466;2022-10-16T16:05:52;18.16;73.94
68098;DHT22;54886;47.036;15.466;2022-10-16T16:08:17;18.14;73.98
68098;DHT22;54886;47.036;15.466;2022-10-16T16:10:43;18.09;74.60
68098;DHT22;54886;47.036;15.466;2022-10-16T16:13:08;18.07;74.42
68098;DHT22;54886;47.036;15.466;2022-10-16T16:15:34;18.02;74.62
68098;DHT22;54886;47.036;15.466;2022-10-16T16:17:59;17.96;74.47
68098;DHT22;54886;47.036;15.466;2022-10-16T16:20:26;17.89;74.85
68098;DHT22;54886;47.036;15.466;2022-10-16T16:22:52;17.82;75.17
68098;DHT22;54886;47.036;15.466;2022-10-16T16:25:17;17.78;74.96
68098;DHT22;54886;47.036;15.466;2022-10-16T16:27:44;17.72;74.94
68098;DHT22;54886;47.036;15.466;2022-10-16T16:30:10;17.69;75.08
68098;DHT22;54886;47.036;15.466;2022-10-16T16:32:36;17.64;75.06
68098;DHT22;54886;47.036;15.466;2022-10-16T16:35:03;17.59;75.24
68098;DHT22;54886;47.036;15.466;2022-10-16T16:37:29;17.54;75.36
68098;DHT22;54886;47.036;15.466;2022-10-16T16:39:54;17.52;75.43
68098;DHT22;54886;47.036;15.466;2022-10-16T16:42:23;17.47;75.29
68098;DHT22;54886;47.036;15.466;2022-10-16T16:44:49;17.44;75.62
68098;DHT22;54886;47.036;15.466;2022-10-16T16:47:14;17.38;75.36
68098;DHT22;54886;47.036;15.466;2022-10-16T16:49:39;17.35;75.58
68098;DHT22;54886;47.036;15.466;2022-10-16T16:52:05;17.28;75.74
68098;DHT22;54886;47.036;15.466;2022-10-16T16:54:31;17.26;75.50
68098;DHT22;54886;47.036;15.466;2022-10-16T16:56:56;17.23;75.53
68098;DHT22;54886;47.036;15.466;2022-10-16T16:59:22;17.16;75.53
68098;DHT22;54886;47.036;15.466;2022-10-16T17:01:48;17.12;75.65
68098;DHT22;54886;47.036;15.466;2022-10-16T17:04:14;17.07;76.00
68098;DHT22;54886;47.036;15.466;2022-10-16T17:06:40;17.03;75.71